Time;durP1;ratioP1;P1;durP2;ratioP2;P2;SDS_P1;SDS_P2;PMS_P1;PMS_P2;Temp;Humidity;BMP_temperature;BMP_pressure;BME280_temperature;BME280_humidity;BME280_pressure;Samples;Min_cycle;Max_cycle;Signal;HPM_P1;HPM_P2
2022/10/31 00:02:17;;;;;;;32.00;28.50;;;12.40;1.00;;;;;;6317156;22;21177;-81
2022/10/31 00:04:44;;;;;;;34.90;29.10;;;12.30;1.00;;;;;;6301945;22;20419;-80
2022/10/31 00:07:14;;;;;;;34.73;29.20;;;12.30;1.00;;;;;;6286867;22;20495;-81
2022/10/31 00:09:46;;;;;;;33.03;29.43;;;12.20;1.00;;;;;;6286550;22;20439;-81
2022/10/31 00:12:13;;;;;;;37.93;31.87;;;12.20;1.00;;;;;;6285995;22;20441;-81
2022/10/31 00:14:56;;;;;;;37.07;30.73;;;12.20;1.00;;;;;;6291934;22;20451;-82
2022/10/31 00:17:26;;;;;;;36.47;31.17;;;12.20;1.00;;;;;;6295254;22;20387;-84
2022/10/31 00:19:54;;;;;;;38.00;31.17;;;12.20;1.00;;;;;;6292622;22;20448;-81
2022/10/31 00:22:23;;;;;;;38.13;32.30;;;12.20;1.00;;;;;;6292563;22;21458;-81
2022/10/31 00:24:55;;;;;;;39.00;33.53;;;12.20;1.00;;;;;;6293945;22;20501;-87
2022/10/31 00:27:24;;;;;;;33.90;30.23;;;12.20;1.00;;;;;;6294505;22;20429;-85
2022/10/31 00:29:56;;;;;;;37.60;31.93;;;12.20;1.00;;;;;;6296277;22;20398;-87
2022/10/31 00:32:36;;;;;;;35.60;30.97;;;12.10;1.00;;;;;;6295244;22;20409;-81
2022/10/31 00:35:06;;;;;;;35.03;29.87;;;12.10;1.00;;;;;;6279915;22;20424;-82
2022/10/31 00:37:36;;;;;;;34.47;29.90;;;12.10;1.00;;;;;;6293476;22;20441;-81
2022/10/31 00:40:07;;;;;;;36.80;30.47;;;12.10;1.00;;;;;;6293289;22;20421;-81
2022/10/31 00:42:37;;;;;;;35.37;30.77;;;12.10;1.00;;;;;;6292231;22;20428;-81
2022/10/31 00:45:12;;;;;;;38.87;32.03;;;12.10;1.00;;;;;;6295203;22;20417;-87
2022/10/31 00:47:44;;;;;;;40.87;32.33;;;12.00;1.00;;;;;;6295129;22;20424;-86
2022/10/31 00:50:15;;;;;;;36.57;32.27;;;12.00;1.00;;;;;;6293805;22;20441;-80
2022/10/31 00:52:45;;;;;;;38.07;31.00;;;11.90;1.00;;;;;;6294462;22;20558;-80
2022/10/31 00:55:15;;;;;;;33.90;30.30;;;11.90;1.00;;;;;;6295933;22;20392;-86
2022/10/31 00:57:43;;;;;;;37.33;32.40;;;11.90;1.00;;;;;;6296162;22;20398;-81
2022/10/31 01:00:15;;;;;;;36.13;31.70;;;11.80;1.00;;;;;;6291174;22;20756;-80
2022/10/31 01:02:45;;;;;;;35.17;31.00;;;11.90;1.00;;;;;;6290847;22;21063;-82
2022/10/31 01:05:13;;;;;;;40.50;33.20;;;11.80;1.00;;;;;;6314800;22;20458;-81
2022/10/31 01:07:46;;;;;;;34.50;30.77;;;11.80;1.00;;;;;;6321471;22;20379;-80
2022/10/31 01:10:17;;;;;;;39.90;32.60;;;11.80;1.00;;;;;;6322846;22;20393;-86
2022/10/31 01:15:37;;;;;;;40.60;34.13;;;11.90;1.00;;;;;;6318960;22;20484;-82
2022/10/31 01:18:08;;;;;;;37.70;33.37;;;11.90;1.00;;;;;;6327015;22;20419;-82
2022/10/31 01:20:34;;;;;;;38.67;34.60;;;11.90;1.00;;;;;;6322938;22;20405;-81
2022/10/31 01:23:05;;;;;;;41.67;36.80;;;11.80;1.00;;;;;;6325871;22;20405;-88
2022/10/31 01:25:35;;;;;;;38.57;34.10;;;11.90;1.00;;;;;;6327915;22;20488;-87
2022/10/31 01:28:05;;;;;;;41.73;35.87;;;12.00;1.00;;;;;;6325324;22;20401;-84
2022/10/31 01:30:35;;;;;;;40.20;35.80;;;12.00;1.00;;;;;;6321944;22;20901;-80
2022/10/31 01:33:02;;;;;;;42.23;36.50;;;12.10;1.00;;;;;;6319983;22;20494;-82
2022/10/31 01:35:37;;;;;;;41.80;35.53;;;12.10;1.00;;;;;;6322268;22;20423;-87
2022/10/31 01:38:20;;;;;;;39.43;35.13;;;12.00;1.00;;;;;;6326047;22;20509;-88
2022/10/31 01:54:35;;;;;;;35.40;31.60;;;12.00;1.00;;;;;;6146364;23;20395;-85
2022/10/31 01:57:15;;;;;;;38.73;33.73;;;12.00;1.00;;;;;;6199094;23;20421;-86
2022/10/31 01:59:56;;;;;;;37.33;32.40;;;11.90;1.00;;;;;;6323212;22;20420;-87
2022/10/31 02:02:35;;;;;;;34.60;30.87;;;11.90;1.00;;;;;;6310897;22;20438;-88
2022/10/31 02:05:16;;;;;;;38.20;32.43;;;11.90;1.00;;;;;;6279658;22;20997;-87
2022/10/31 02:07:56;;;;;;;37.83;33.87;;;11.90;1.00;;;;;;6297184;22;20479;-85
2022/10/31 02:10:28;;;;;;;37.50;32.60;;;11.90;1.00;;;;;;6326328;22;21171;-87
2022/10/31 02:13:05;;;;;;;38.60;32.53;;;11.90;1.00;;;;;;6316100;22;20421;-86
2022/10/31 02:15:45;;;;;;;38.90;32.17;;;11.90;1.00;;;;;;6336884;22;20573;-80
2022/10/31 02:18:17;;;;;;;37.17;33.00;;;11.80;1.00;;;;;;6321497;22;20407;-85
2022/10/31 02:21:05;;;;;;;41.80;33.27;;;11.80;1.00;;;;;;6334377;22;20412;-86
2022/10/31 02:24:17;;;;;;;36.27;31.80;;;11.80;1.00;;;;;;6328278;22;20401;-87
2022/10/31 02:27:24;;;;;;;39.47;33.57;;;11.80;1.00;;;;;;6312833;22;20404;-82
2022/10/31 02:30:13;;;;;;;36.30;31.50;;;11.80;1.00;;;;;;6316621;22;20415;-84
2022/10/31 02:33:00;;;;;;;34.80;30.70;;;11.70;1.00;;;;;;6318420;22;21062;-83
2022/10/31 02:35:55;;;;;;;34.37;30.63;;;11.70;1.00;;;;;;6307134;22;20450;-82
2022/10/31 02:38:46;;;;;;;38.67;31.90;;;11.80;1.00;;;;;;6314736;22;20398;-80
2022/10/31 02:41:26;;;;;;;34.17;29.70;;;11.70;1.00;;;;;;6316479;22;20421;-81
2022/10/31 02:44:08;;;;;;;35.70;28.03;;;11.80;1.00;;;;;;6323193;22;20405;-83
2022/10/31 02:46:48;;;;;;;32.03;28.17;;;11.80;1.00;;;;;;6326245;22;20530;-90
2022/10/31 02:49:27;;;;;;;35.20;29.23;;;11.90;1.00;;;;;;6322996;22;20555;-81
2022/10/31 02:51:58;;;;;;;33.70;28.23;;;11.90;1.00;;;;;;6294049;22;20584;-81
2022/10/31 02:54:30;;;;;;;35.10;29.40;;;11.90;1.00;;;;;;6315183;22;20441;-81
2022/10/31 02:57:05;;;;;;;32.43;29.00;;;11.90;1.00;;;;;;6322198;22;20430;-81
2022/10/31 02:59:50;;;;;;;32.73;28.60;;;11.90;1.00;;;;;;6313912;22;20411;-83
2022/10/31 03:02:57;;;;;;;35.00;29.20;;;11.80;1.00;;;;;;6320140;22;20416;-85
2022/10/31 03:05:58;;;;;;;33.47;29.90;;;11.80;1.00;;;;;;6308442;22;20401;-86
2022/10/31 03:08:31;;;;;;;37.00;31.77;;;11.80;1.00;;;;;;6329351;22;20537;-87
2022/10/31 03:11:12;;;;;;;33.67;29.13;;;11.70;1.00;;;;;;6324933;22;20506;-86
2022/10/31 03:13:52;;;;;;;37.73;30.40;;;11.70;1.00;;;;;;6326029;22;20431;-86
2022/10/31 03:16:30;;;;;;;31.00;27.53;;;11.70;1.00;;;;;;6322015;22;20413;-81
2022/10/31 03:19:13;;;;;;;32.93;29.40;;;11.60;1.00;;;;;;6302267;22;20424;-86
2022/10/31 03:21:52;;;;;;;36.00;29.60;;;11.60;1.00;;;;;;6344356;22;20404;-83
2022/10/31 03:24:30;;;;;;;34.70;28.37;;;11.50;1.00;;;;;;6327560;22;20386;-87
2022/10/31 03:27:20;;;;;;;32.63;26.57;;;11.50;1.00;;;;;;6327854;22;21056;-90
2022/10/31 03:30:02;;;;;;;30.90;27.50;;;11.60;1.00;;;;;;6326294;22;20494;-83
2022/10/31 03:32:41;;;;;;;36.13;28.33;;;11.60;1.00;;;;;;6328544;22;20399;-88
2022/10/31 03:35:14;;;;;;;33.60;26.87;;;11.60;1.00;;;;;;6324810;22;20442;-82
2022/10/31 03:37:56;;;;;;;36.13;27.17;;;11.60;1.00;;;;;;6329827;22;20417;-80
2022/10/31 03:40:40;;;;;;;32.87;27.60;;;11.60;1.00;;;;;;6322579;22;20414;-82
2022/10/31 03:43:20;;;;;;;32.20;26.33;;;11.60;1.00;;;;;;6322577;22;20412;-82
2022/10/31 03:45:53;;;;;;;34.83;27.87;;;11.60;1.00;;;;;;6317655;22;20375;-81
2022/10/31 03:48:23;;;;;;;31.67;25.57;;;11.70;1.00;;;;;;6324508;22;20452;-85
2022/10/31 03:51:00;;;;;;;33.17;26.20;;;11.70;1.00;;;;;;6328467;22;20397;-80
2022/10/31 03:53:36;;;;;;;32.17;26.57;;;11.70;1.00;;;;;;6317458;22;20447;-80
2022/10/31 03:56:12;;;;;;;31.50;26.03;;;11.80;1.00;;;;;;6321599;22;20418;-79
2022/10/31 03:58:53;;;;;;;30.57;27.27;;;11.60;1.00;;;;;;6325543;22;20404;-81
2022/10/31 04:01:23;;;;;;;30.87;26.43;;;11.60;1.00;;;;;;6324736;22;20416;-82
2022/10/31 04:03:59;;;;;;;33.77;28.13;;;11.50;1.00;;;;;;6324316;22;20427;-81
2022/10/31 04:06:33;;;;;;;34.67;27.97;;;11.50;1.00;;;;;;6322414;22;20420;-80
2022/10/31 04:09:04;;;;;;;31.53;28.13;;;11.50;1.00;;;;;;6319364;22;20442;-78
2022/10/31 04:11:40;;;;;;;27.63;24.67;;;11.50;1.00;;;;;;6321390;22;20390;-80
2022/10/31 04:14:11;;;;;;;32.10;24.90;;;11.50;1.00;;;;;;6322238;22;20387;-82
2022/10/31 04:16:43;;;;;;;30.47;23.70;;;11.60;1.00;;;;;;6325071;22;20373;-86
2022/10/31 04:19:10;;;;;;;31.53;26.67;;;11.60;1.00;;;;;;6322738;22;20422;-81
2022/10/31 04:21:43;;;;;;;33.27;24.87;;;11.50;1.00;;;;;;6322413;22;20405;-82
2022/10/31 04:24:14;;;;;;;34.33;25.60;;;11.50;1.00;;;;;;6320075;22;20446;-85
2022/10/31 04:26:40;;;;;;;32.43;26.23;;;11.50;1.00;;;;;;6325672;22;20427;-85
2022/10/31 04:29:13;;;;;;;32.83;26.20;;;11.50;1.00;;;;;;6321361;22;20440;-89
2022/10/31 04:31:43;;;;;;;31.43;25.10;;;11.50;1.00;;;;;;6329518;22;20448;-81
2022/10/31 04:34:11;;;;;;;33.23;25.03;;;11.60;1.00;;;;;;6328309;22;20404;-88
2022/10/31 04:36:41;;;;;;;32.13;22.83;;;11.50;1.00;;;;;;6327713;22;20413;-86
2022/10/31 04:39:13;;;;;;;36.63;25.33;;;11.50;1.00;;;;;;6328752;22;20452;-89
2022/10/31 04:41:43;;;;;;;31.10;24.90;;;11.50;1.00;;;;;;6333374;22;20403;-89
2022/10/31 04:44:13;;;;;;;40.37;26.37;;;11.50;1.00;;;;;;6328299;22;20419;-88
2022/10/31 04:46:41;;;;;;;30.90;25.13;;;11.60;1.00;;;;;;6325921;22;20432;-82
2022/10/31 04:49:12;;;;;;;33.77;23.43;;;11.60;1.00;;;;;;6327124;22;20386;-80
2022/10/31 04:51:43;;;;;;;34.30;24.80;;;11.60;1.00;;;;;;6322997;22;20420;-83
2022/10/31 04:54:13;;;;;;;32.70;24.20;;;11.60;1.00;;;;;;6320572;22;20515;-81
2022/10/31 04:56:43;;;;;;;28.93;22.87;;;11.70;1.00;;;;;;6326051;22;20473;-82
2022/10/31 04:59:12;;;;;;;35.70;23.27;;;11.70;1.00;;;;;;6324929;22;20405;-88
2022/10/31 05:01:45;;;;;;;31.33;25.73;;;11.60;1.00;;;;;;6323689;22;20412;-83
2022/10/31 05:04:14;;;;;;;29.53;23.67;;;11.70;1.00;;;;;;6322747;22;20432;-85
2022/10/31 05:06:45;;;;;;;29.63;22.30;;;11.70;1.00;;;;;;6329782;22;20400;-87
2022/10/31 05:09:25;;;;;;;30.20;22.57;;;11.70;1.00;;;;;;6330280;22;20512;-87
2022/10/31 05:11:55;;;;;;;28.60;21.50;;;11.70;1.00;;;;;;6327571;22;20388;-87
2022/10/31 05:14:23;;;;;;;29.67;22.50;;;11.70;1.00;;;;;;6327376;22;20416;-83
2022/10/31 05:16:53;;;;;;;28.27;21.83;;;11.70;1.00;;;;;;6326139;22;20409;-85
2022/10/31 05:19:24;;;;;;;27.00;20.57;;;11.70;1.00;;;;;;6326894;22;20378;-87
2022/10/31 05:21:55;;;;;;;29.77;23.17;;;11.80;1.00;;;;;;6326914;22;21050;-82
2022/10/31 05:24:33;;;;;;;27.20;20.63;;;11.80;1.00;;;;;;6322472;22;20465;-81
2022/10/31 05:27:06;;;;;;;25.83;20.77;;;11.80;1.00;;;;;;6322933;22;20469;-82
2022/10/31 05:30:04;;;;;;;27.20;20.90;;;11.90;1.00;;;;;;6331569;22;20437;-85
2022/10/31 05:35:34;;;;;;;28.43;21.27;;;12.00;1.00;;;;;;6318675;22;20467;-88
2022/10/31 05:38:03;;;;;;;27.13;21.07;;;12.00;1.00;;;;;;6324809;22;20425;-82
2022/10/31 05:40:38;;;;;;;34.07;23.90;;;12.00;1.00;;;;;;6322946;22;20451;-81
2022/10/31 05:43:05;;;;;;;32.33;21.77;;;12.00;1.00;;;;;;6327192;22;20505;-88
2022/10/31 05:45:42;;;;;;;35.43;22.90;;;12.00;1.00;;;;;;6323248;22;20444;-80
2022/10/31 05:48:13;;;;;;;25.87;19.97;;;12.00;1.00;;;;;;6318971;22;20394;-81
2022/10/31 05:50:45;;;;;;;29.00;20.43;;;11.90;1.00;;;;;;6319511;22;20473;-84
2022/10/31 05:53:15;;;;;;;27.17;21.37;;;11.90;1.00;;;;;;6319140;22;20423;-80
2022/10/31 05:55:44;;;;;;;28.47;21.67;;;11.90;1.00;;;;;;6322718;22;20415;-85
2022/10/31 05:58:13;;;;;;;26.93;21.43;;;11.90;1.00;;;;;;6281705;22;20458;-84
2022/10/31 06:00:43;;;;;;;28.53;21.50;;;11.90;1.00;;;;;;6318893;22;20398;-82
2022/10/31 06:03:14;;;;;;;29.33;20.93;;;12.00;1.00;;;;;;6322845;22;20389;-86
2022/10/31 06:05:43;;;;;;;30.97;20.57;;;11.90;1.00;;;;;;6326175;22;20466;-83
2022/10/31 06:08:24;;;;;;;27.70;20.07;;;11.90;1.00;;;;;;6323245;22;20775;-84
2022/10/31 06:11:24;;;;;;;28.27;20.20;;;12.00;1.00;;;;;;6297369;22;20425;-83
2022/10/31 06:13:56;;;;;;;30.00;23.20;;;11.90;1.00;;;;;;6254712;22;20442;-82
2022/10/31 06:16:25;;;;;;;32.17;21.00;;;12.00;1.00;;;;;;6245733;22;20401;-85
2022/10/31 06:18:53;;;;;;;26.13;19.90;;;11.90;1.00;;;;;;6249644;22;20414;-84
2022/10/31 06:21:24;;;;;;;28.03;20.77;;;11.90;1.00;;;;;;6261043;22;20399;-87
2022/10/31 06:23:55;;;;;;;29.97;20.67;;;11.90;1.00;;;;;;6311974;22;20451;-86
2022/10/31 06:26:25;;;;;;;29.73;21.20;;;11.90;1.00;;;;;;6322073;22;20502;-85
2022/10/31 06:29:03;;;;;;;23.53;20.27;;;11.90;1.00;;;;;;6319486;22;20847;-84
2022/10/31 06:31:35;;;;;;;29.63;21.60;;;11.90;1.00;;;;;;6325317;22;20401;-84
2022/10/31 06:34:06;;;;;;;30.13;19.67;;;11.90;1.00;;;;;;6321892;22;20404;-84
2022/10/31 06:36:35;;;;;;;28.37;21.73;;;11.90;1.00;;;;;;6323730;22;21054;-83
2022/10/31 06:39:06;;;;;;;24.87;20.50;;;12.00;1.00;;;;;;6322643;22;20420;-84
2022/10/31 06:41:44;;;;;;;26.73;21.03;;;12.00;1.00;;;;;;6325793;22;20436;-86
2022/10/31 06:44:15;;;;;;;32.00;22.07;;;12.00;1.00;;;;;;6320941;22;20452;-85
2022/10/31 06:46:55;;;;;;;27.13;21.30;;;12.00;1.00;;;;;;6290004;22;20409;-83
2022/10/31 06:49:25;;;;;;;30.60;22.00;;;12.00;1.00;;;;;;6321511;22;20397;-80
2022/10/31 06:51:55;;;;;;;25.67;20.20;;;12.10;1.00;;;;;;6325602;22;20379;-79
2022/10/31 06:54:32;;;;;;;29.83;20.17;;;12.10;1.00;;;;;;6322101;22;20407;-82
2022/10/31 06:57:15;;;;;;;30.13;21.13;;;12.10;1.00;;;;;;6323290;22;20493;-82
2022/10/31 06:59:52;;;;;;;29.90;22.17;;;12.20;1.00;;;;;;6299569;22;20390;-79
2022/10/31 07:02:25;;;;;;;31.30;24.47;;;12.10;1.00;;;;;;6326668;22;20397;-80
2022/10/31 07:04:54;;;;;;;27.63;23.27;;;12.10;1.00;;;;;;6323793;22;20478;-83
2022/10/31 07:07:21;;;;;;;30.50;25.63;;;12.10;1.00;;;;;;6326670;22;20487;-89
2022/10/31 07:09:55;;;;;;;33.60;25.20;;;12.20;1.00;;;;;;6325051;22;20384;-80
2022/10/31 07:12:24;;;;;;;32.57;26.40;;;12.20;1.00;;;;;;6330486;22;20430;-89
2022/10/31 07:14:55;;;;;;;33.37;24.87;;;12.40;1.00;;;;;;6332516;22;20400;-80
2022/10/31 07:17:30;;;;;;;29.93;24.10;;;12.60;1.00;;;;;;6324301;22;20438;-84
2022/10/31 07:19:59;;;;;;;30.70;24.40;;;12.80;1.00;;;;;;6321373;22;20411;-83
2022/10/31 07:22:33;;;;;;;30.63;25.30;;;12.80;1.00;;;;;;6324158;22;20396;-84
2022/10/31 07:25:16;;;;;;;35.90;26.70;;;13.00;1.00;;;;;;6323253;22;20376;-84
2022/10/31 07:27:44;;;;;;;36.97;26.67;;;13.10;1.00;;;;;;6328697;22;20441;-85
2022/10/31 07:30:17;;;;;;;35.00;26.40;;;13.30;1.00;;;;;;6278514;22;20372;-84
2022/10/31 07:32:46;;;;;;;41.40;29.37;;;13.60;1.00;;;;;;6326079;22;20389;-89
2022/10/31 07:35:16;;;;;;;40.80;31.73;;;13.80;1.00;;;;;;6324515;22;20845;-82
2022/10/31 07:37:44;;;;;;;37.63;32.80;;;14.10;1.00;;;;;;6328701;22;20432;-84
2022/10/31 07:40:13;;;;;;;33.70;28.50;;;14.30;1.00;;;;;;6325435;22;20451;-84
2022/10/31 07:42:47;;;;;;;33.70;28.90;;;14.60;1.00;;;;;;6325274;22;20403;-79
2022/10/31 07:45:25;;;;;;;34.90;28.37;;;15.00;1.00;;;;;;6319291;22;20457;-78
2022/10/31 07:47:58;;;;;;;33.20;27.90;;;15.30;1.00;;;;;;6318870;22;20520;-83
2022/10/31 07:50:32;;;;;;;36.63;27.77;;;15.60;1.00;;;;;;6313335;22;20447;-82
2022/10/31 07:53:01;;;;;;;34.53;28.20;;;15.90;1.00;;;;;;6326869;22;20510;-80
2022/10/31 07:55:30;;;;;;;37.23;27.33;;;16.20;1.00;;;;;;6324850;22;20545;-80
2022/10/31 07:58:01;;;;;;;35.23;28.13;;;16.30;1.00;;;;;;6323329;22;20410;-84
2022/10/31 08:00:37;;;;;;;32.50;26.83;;;16.60;1.00;;;;;;6302932;22;20510;-85
2022/10/31 08:03:11;;;;;;;29.50;24.03;;;16.70;1.00;;;;;;6326100;22;20390;-81
2022/10/31 08:05:40;;;;;;;36.00;25.20;;;16.80;1.00;;;;;;6306110;22;20374;-80
2022/10/31 08:08:11;;;;;;;30.53;24.40;;;16.70;1.00;;;;;;6308455;22;20434;-82
2022/10/31 08:10:41;;;;;;;33.70;25.67;;;16.80;1.00;;;;;;6323521;22;20425;-89
2022/10/31 08:13:11;;;;;;;31.03;23.77;;;16.80;1.00;;;;;;6325807;22;20463;-82
2022/10/31 08:15:50;;;;;;;32.13;24.10;;;16.90;1.00;;;;;;6330259;22;20977;-84
2022/10/31 08:18:21;;;;;;;45.30;37.17;;;16.80;1.00;;;;;;6310026;22;20397;-87
2022/10/31 08:20:48;;;;;;;31.67;24.13;;;16.60;1.00;;;;;;6313494;22;20486;-81
2022/10/31 08:23:19;;;;;;;32.97;25.67;;;16.60;1.00;;;;;;6326942;22;20453;-80
2022/10/31 08:25:51;;;;;;;34.23;25.40;;;16.60;1.00;;;;;;6315537;22;20453;-81
2022/10/31 08:28:20;;;;;;;37.40;23.93;;;16.50;1.00;;;;;;6312601;22;20432;-81
2022/10/31 08:30:49;;;;;;;30.50;22.40;;;16.60;1.00;;;;;;6319003;22;20920;-79
2022/10/31 08:33:21;;;;;;;30.40;21.70;;;16.50;1.00;;;;;;6322785;22;20397;-79
2022/10/31 08:35:48;;;;;;;31.07;21.13;;;16.50;1.00;;;;;;6323542;22;20418;-79
2022/10/31 08:38:20;;;;;;;33.50;22.17;;;16.50;1.00;;;;;;6322150;22;20741;-79
2022/10/31 08:40:50;;;;;;;27.23;21.97;;;16.60;1.00;;;;;;6321232;22;20396;-80
2022/10/31 08:43:19;;;;;;;29.10;21.83;;;16.70;1.00;;;;;;6306157;22;20457;-79
2022/10/31 08:45:50;;;;;;;24.70;20.40;;;16.70;1.00;;;;;;6317976;22;20393;-79
2022/10/31 08:48:21;;;;;;;26.50;21.63;;;16.50;1.00;;;;;;6323365;22;20435;-80
2022/10/31 08:50:53;;;;;;;33.43;21.73;;;16.50;1.00;;;;;;6289770;22;20384;-81
2022/10/31 08:53:22;;;;;;;30.80;21.97;;;16.60;1.00;;;;;;6322925;22;20457;-81
2022/10/31 08:55:51;;;;;;;27.90;21.27;;;16.70;1.00;;;;;;6306837;22;20440;-80
2022/10/31 08:58:21;;;;;;;29.67;21.53;;;16.70;1.00;;;;;;6306136;22;20479;-81
2022/10/31 09:00:51;;;;;;;33.90;21.43;;;16.70;1.00;;;;;;6291006;22;20417;-82
2022/10/31 09:03:31;;;;;;;28.27;20.07;;;16.80;1.00;;;;;;6313484;22;21243;-81
2022/10/31 09:06:11;;;;;;;24.83;20.90;;;16.80;1.00;;;;;;6291091;22;20417;-81
2022/10/31 09:08:41;;;;;;;27.97;21.63;;;16.90;1.00;;;;;;6299524;22;20406;-80
2022/10/31 09:11:10;;;;;;;29.83;21.87;;;17.20;1.00;;;;;;6268271;22;20430;-80
2022/10/31 09:13:40;;;;;;;35.17;22.67;;;17.70;1.00;;;;;;6281516;22;20453;-80
2022/10/31 09:16:18;;;;;;;26.07;19.40;;;18.30;1.00;;;;;;6261288;22;20576;-78
2022/10/31 09:18:59;;;;;;;26.70;20.33;;;19.20;1.00;;;;;;6284603;22;20435;-79
2022/10/31 09:21:32;;;;;;;28.10;20.10;;;19.90;1.00;;;;;;6282117;22;20402;-81
2022/10/31 09:24:01;;;;;;;31.27;20.47;;;20.00;1.00;;;;;;6305181;22;20428;-81
2022/10/31 09:26:39;;;;;;;28.97;21.73;;;20.00;1.00;;;;;;6295352;22;20381;-80
2022/10/31 09:29:10;;;;;;;34.70;23.70;;;19.80;1.00;;;;;;6255185;22;20464;-81
2022/10/31 09:31:41;;;;;;;28.77;21.87;;;19.30;1.00;;;;;;6281832;22;20415;-80
2022/10/31 09:34:10;;;;;;;36.77;32.97;;;19.20;1.00;;;;;;6285943;22;20406;-78
2022/10/31 09:36:40;;;;;;;27.30;24.13;;;19.30;1.00;;;;;;6291952;22;20496;-81
2022/10/31 09:39:09;;;;;;;30.67;23.70;;;19.50;1.00;;;;;;6276666;22;20462;-80
2022/10/31 09:41:59;;;;;;;30.00;23.07;;;19.60;1.00;;;;;;6277788;22;20419;-79
2022/10/31 09:44:44;;;;;;;26.80;22.03;;;19.80;1.00;;;;;;6277973;22;20400;-79
2022/10/31 09:47:23;;;;;;;32.23;24.80;;;20.10;1.00;;;;;;6245242;22;20403;-82
2022/10/31 09:50:07;;;;;;;31.80;23.33;;;20.60;1.00;;;;;;6290515;22;20397;-81
2022/10/31 09:52:44;;;;;;;30.90;23.77;;;20.80;1.00;;;;;;6287813;22;20440;-80
2022/10/31 09:55:21;;;;;;;31.67;24.03;;;20.70;1.00;;;;;;6271546;22;22257;-82
2022/10/31 09:57:53;;;;;;;34.97;24.97;;;20.60;1.00;;;;;;6305037;22;20385;-81
2022/10/31 10:00:24;;;;;;;30.83;25.27;;;20.40;1.00;;;;;;6287991;22;21247;-82
2022/10/31 10:03:01;;;;;;;27.80;24.23;;;20.10;1.00;;;;;;6277043;22;20442;-82
2022/10/31 10:08:32;;;;;;;32.97;26.47;;;19.50;1.00;;;;;;6300886;22;20467;-79
2022/10/31 10:11:20;;;;;;;36.20;28.90;;;19.20;1.00;;;;;;6287031;22;20476;-85
2022/10/31 10:14:13;;;;;;;36.73;29.67;;;19.00;1.00;;;;;;6296452;22;20402;-83
2022/10/31 10:17:02;;;;;;;36.53;29.43;;;18.80;1.00;;;;;;6327161;22;20419;-81
2022/10/31 10:19:50;;;;;;;35.90;28.33;;;19.40;1.00;;;;;;6326053;22;20415;-80
2022/10/31 10:22:32;;;;;;;41.60;30.27;;;19.90;1.00;;;;;;6325381;22;20513;-83
2022/10/31 10:25:23;;;;;;;38.20;29.37;;;20.30;1.00;;;;;;6324266;22;20408;-81
2022/10/31 10:28:03;;;;;;;33.80;27.90;;;20.40;1.00;;;;;;6302378;22;20403;-81
2022/10/31 10:30:42;;;;;;;33.23;27.70;;;20.20;1.00;;;;;;6313728;22;20440;-81
2022/10/31 10:33:30;;;;;;;36.30;30.20;;;20.00;1.00;;;;;;6312112;22;20403;-80
2022/10/31 10:36:11;;;;;;;35.53;28.33;;;20.00;1.00;;;;;;6326456;22;20427;-81
2022/10/31 10:38:50;;;;;;;33.27;27.90;;;19.70;1.00;;;;;;6327387;22;21059;-79
2022/10/31 10:41:19;;;;;;;41.40;29.50;;;19.60;1.00;;;;;;6325681;22;20398;-82
2022/10/31 10:43:51;;;;;;;40.67;30.27;;;19.40;1.00;;;;;;6327832;22;20523;-83
2022/10/31 10:49:31;;;;;;;34.67;27.63;;;19.40;1.00;;;;;;6328041;22;20444;-84
2022/10/31 10:52:11;;;;;;;37.03;28.27;;;19.50;1.00;;;;;;6328194;22;20445;-82
2022/10/31 10:55:10;;;;;;;41.70;28.97;;;20.50;1.00;;;;;;6326478;22;20412;-81
2022/10/31 10:57:53;;;;;;;35.57;27.20;;;21.40;1.00;;;;;;6327223;22;20404;-83
2022/10/31 11:00:25;;;;;;;33.73;25.77;;;22.30;1.00;;;;;;6326727;22;20400;-80
2022/10/31 11:02:52;;;;;;;32.87;25.80;;;22.80;1.00;;;;;;6326259;22;20451;-81
2022/10/31 11:05:26;;;;;;;31.10;26.47;;;23.20;1.00;;;;;;6324930;22;20447;-81
2022/10/31 11:08:01;;;;;;;33.63;26.67;;;23.60;1.00;;;;;;6309974;22;20539;-80
2022/10/31 11:10:29;;;;;;;29.27;25.00;;;23.90;1.00;;;;;;6313515;22;21004;-82
2022/10/31 11:13:27;;;;;;;31.50;26.60;;;24.00;1.00;;;;;;6313571;22;20425;-83
2022/10/31 11:16:08;;;;;;;30.20;22.67;;;24.20;1.00;;;;;;6323933;22;20531;-83
2022/10/31 11:18:45;;;;;;;28.43;23.00;;;24.40;1.00;;;;;;6325504;22;20455;-82
2022/10/31 11:21:35;;;;;;;27.90;25.00;;;24.50;1.00;;;;;;6325275;22;20383;-82
2022/10/31 11:24:25;;;;;;;31.50;25.07;;;23.90;1.00;;;;;;6325326;22;20426;-81
2022/10/31 11:27:13;;;;;;;30.70;24.30;;;23.40;1.00;;;;;;6324182;22;20473;-80
2022/10/31 11:29:45;;;;;;;32.40;25.57;;;23.00;1.00;;;;;;6324634;22;20434;-81
2022/10/31 11:32:21;;;;;;;33.93;25.17;;;22.60;1.00;;;;;;6324001;22;20496;-81
2022/10/31 11:34:52;;;;;;;33.63;24.70;;;22.30;1.00;;;;;;6324858;22;20417;-83
2022/10/31 11:37:25;;;;;;;33.90;24.97;;;22.10;1.00;;;;;;6325129;22;20615;-84
2022/10/31 11:39:58;;;;;;;32.70;26.60;;;22.10;1.00;;;;;;6323061;22;20417;-82
2022/10/31 11:42:31;;;;;;;32.33;24.63;;;22.20;1.00;;;;;;6323073;22;20396;-82
2022/10/31 11:45:08;;;;;;;32.37;26.10;;;22.30;1.00;;;;;;6319818;22;20427;-80
2022/10/31 11:47:37;;;;;;;31.10;25.30;;;22.40;1.00;;;;;;6320843;22;20428;-81
2022/10/31 11:50:27;;;;;;;30.20;25.33;;;22.80;1.00;;;;;;6323628;22;20440;-79
2022/10/31 11:52:56;;;;;;;33.07;23.87;;;23.50;1.00;;;;;;6320800;22;20460;-78
2022/10/31 11:55:37;;;;;;;34.93;23.70;;;24.90;1.00;;;;;;6321442;22;20555;-80
2022/10/31 11:58:26;;;;;;;29.53;24.33;;;26.40;1.00;;;;;;6321930;22;20383;-81
2022/10/31 12:00:57;;;;;;;33.80;26.27;;;27.40;1.00;;;;;;6322230;22;20482;-79
2022/10/31 12:03:55;;;;;;;29.20;24.47;;;28.10;1.00;;;;;;6323868;22;20446;-80
2022/10/31 12:06:37;;;;;;;28.87;24.27;;;28.80;1.00;;;;;;6324415;22;20378;-80
2022/10/31 12:09:24;;;;;;;32.40;25.67;;;29.20;1.00;;;;;;6321142;22;20411;-79
2022/10/31 12:12:25;;;;;;;31.17;24.70;;;29.40;1.00;;;;;;6322281;22;20395;-78
2022/10/31 12:15:11;;;;;;;34.00;24.43;;;29.90;1.00;;;;;;6322130;22;20911;-81
2022/10/31 12:17:44;;;;;;;29.50;25.03;;;29.60;1.00;;;;;;6320503;22;20406;-78
2022/10/31 12:20:25;;;;;;;29.53;24.13;;;28.70;1.00;;;;;;6321864;22;20425;-80
2022/10/31 12:23:30;;;;;;;28.70;24.43;;;28.70;1.00;;;;;;6322363;22;20383;-81
2022/10/31 12:26:13;;;;;;;31.13;24.77;;;28.20;1.00;;;;;;6322781;22;20503;-79
2022/10/31 12:29:07;;;;;;;29.77;25.83;;;28.10;1.00;;;;;;6317856;22;20442;-81
2022/10/31 12:31:48;;;;;;;29.57;26.23;;;27.70;1.00;;;;;;6319601;22;20443;-80
2022/10/31 12:34:52;;;;;;;37.50;32.77;;;27.60;1.00;;;;;;6311448;22;20428;-79
2022/10/31 12:37:36;;;;;;;30.33;27.20;;;27.60;1.00;;;;;;6290480;22;20460;-82
2022/10/31 12:40:26;;;;;;;37.90;29.93;;;27.30;1.00;;;;;;6324528;22;20410;-82
2022/10/31 12:43:12;;;;;;;33.30;26.50;;;26.40;1.00;;;;;;6326643;22;20414;-84
2022/10/31 12:45:57;;;;;;;36.90;26.90;;;25.80;1.00;;;;;;6324549;22;20417;-81
2022/10/31 12:48:58;;;;;;;34.53;26.33;;;25.60;1.00;;;;;;6324845;22;20434;-80
2022/10/31 12:51:38;;;;;;;34.90;26.80;;;25.20;1.00;;;;;;6323779;22;20391;-80
2022/10/31 12:54:32;;;;;;;30.17;25.40;;;24.80;1.00;;;;;;6320000;22;20397;-80
2022/10/31 12:57:06;;;;;;;34.80;25.87;;;24.60;1.00;;;;;;6322079;22;20429;-80
2022/10/31 12:59:37;;;;;;;32.57;26.50;;;24.70;1.00;;;;;;6320313;22;20426;-79
2022/10/31 13:02:17;;;;;;;33.17;26.70;;;24.90;1.00;;;;;;6318389;22;20413;-79
2022/10/31 13:05:03;;;;;;;32.87;27.03;;;25.80;1.00;;;;;;6323750;22;20458;-81
2022/10/31 13:07:38;;;;;;;31.13;26.23;;;26.80;1.00;;;;;;6321786;22;20414;-80
2022/10/31 13:10:18;;;;;;;29.23;25.60;;;27.30;1.00;;;;;;6322416;22;20445;-79
2022/10/31 13:12:48;;;;;;;28.80;24.10;;;27.30;1.00;;;;;;6322008;22;20445;-81
2022/10/31 13:15:19;;;;;;;31.03;25.30;;;26.80;1.00;;;;;;6320918;22;20540;-79
2022/10/31 13:17:54;;;;;;;34.27;26.43;;;26.10;1.00;;;;;;6323054;22;20383;-81
2022/10/31 13:20:29;;;;;;;31.93;26.03;;;25.20;1.00;;;;;;6322152;22;20471;-81
2022/10/31 13:23:10;;;;;;;33.83;27.00;;;24.50;1.00;;;;;;6325571;22;20425;-79
2022/10/31 13:25:46;;;;;;;33.60;27.67;;;24.00;1.00;;;;;;6307880;22;20515;-80
2022/10/31 13:28:30;;;;;;;36.10;26.03;;;23.60;1.00;;;;;;6323753;22;20405;-82
2022/10/31 13:30:57;;;;;;;32.67;26.23;;;23.30;1.00;;;;;;6327225;22;20424;-79
2022/10/31 13:33:37;;;;;;;34.63;26.47;;;23.00;1.00;;;;;;6308717;22;20396;-82
2022/10/31 13:36:18;;;;;;;33.83;26.80;;;22.80;1.00;;;;;;6306605;22;20483;-80
2022/10/31 13:38:59;;;;;;;33.07;27.77;;;22.60;1.00;;;;;;6323077;22;20393;-80
2022/10/31 13:41:41;;;;;;;32.63;29.13;;;22.50;1.00;;;;;;6310314;22;20505;-80
2022/10/31 13:44:21;;;;;;;34.17;27.00;;;22.40;1.00;;;;;;6316800;22;20407;-79
2022/10/31 13:46:48;;;;;;;37.27;28.40;;;22.20;1.00;;;;;;6316590;22;20507;-79